createdAt,value
2017-09-17T00:00:34.109Z,8.53
2017-09-17T00:03:00.320Z,9.67
2017-09-17T00:05:26.596Z,10.50
2017-09-17T00:07:52.814Z,10.13
2017-09-17T00:10:19.030Z,9.90
2017-09-17T00:12:45.308Z,10.23
2017-09-17T00:15:11.657Z,8.93
2017-09-17T00:17:37.870Z,9.83
2017-09-17T00:20:04.150Z,10.30
2017-09-17T00:22:30.375Z,10.10
2017-09-17T00:24:56.576Z,9.07
2017-09-17T00:27:22.826Z,11.13
2017-09-17T00:29:49.021Z,8.70
2017-09-17T00:32:15.296Z,10.90
2017-09-17T00:34:41.539Z,8.80
2017-09-17T00:37:07.755Z,11.67
2017-09-17T00:39:33.985Z,10.33
2017-09-17T00:42:00.256Z,9.70
2017-09-17T00:44:26.458Z,9.77
2017-09-17T00:46:52.665Z,12.33
2017-09-17T00:49:18.916Z,11.30
2017-09-17T00:51:45.136Z,9.57
2017-09-17T00:54:11.342Z,10.83
2017-09-17T00:56:37.614Z,10.27
2017-09-17T00:59:03.849Z,11.17
2017-09-17T01:01:30.067Z,10.70
2017-09-17T01:03:56.348Z,10.30
2017-09-17T01:06:22.654Z,10.40
2017-09-17T01:08:48.857Z,9.57
2017-09-17T01:11:15.170Z,9.50
2017-09-17T01:13:41.399Z,12.60
2017-09-17T01:16:07.603Z,11.40
2017-09-17T01:18:33.873Z,10.20
2017-09-17T01:21:00.109Z,10.80
2017-09-17T01:23:26.510Z,11.20
2017-09-17T01:25:52.785Z,11.07
2017-09-17T01:28:19.001Z,10.70
2017-09-17T01:30:45.201Z,11.53
2017-09-17T01:33:11.481Z,11.80
2017-09-17T01:35:37.710Z,11.70
2017-09-17T01:38:04.033Z,11.30
2017-09-17T01:40:30.300Z,12.00
2017-09-17T01:42:56.528Z,10.30
2017-09-17T01:45:22.751Z,9.17
2017-09-17T01:47:49.021Z,9.07
2017-09-17T01:50:15.229Z,9.53
2017-09-17T01:52:41.462Z,9.80
2017-09-17T01:55:07.734Z,9.70
2017-09-17T01:57:33.932Z,10.33
2017-09-17T02:00:00.160Z,10.30
2017-09-17T02:02:26.420Z,10.33
2017-09-17T02:04:52.631Z,10.33
2017-09-17T02:07:18.840Z,9.50
2017-09-17T02:09:45.138Z,11.00
2017-09-17T02:12:11.352Z,10.80
2017-09-17T02:14:37.570Z,10.00
2017-09-17T02:17:03.860Z,11.50
2017-09-17T02:19:30.073Z,10.90
2017-09-17T02:21:56.280Z,11.87
2017-09-17T02:24:22.560Z,11.23
2017-09-17T02:26:48.774Z,11.37
2017-09-17T02:29:15.009Z,9.73
2017-09-17T02:31:41.284Z,11.13
2017-09-17T02:34:07.516Z,10.33
2017-09-17T02:36:33.757Z,10.07
2017-09-17T02:39:00.034Z,9.93
2017-09-17T02:41:26.257Z,10.17
2017-09-17T02:43:52.480Z,10.83
2017-09-17T02:46:18.762Z,10.23
2017-09-17T02:48:44.987Z,10.90
2017-09-17T02:51:11.215Z,11.13
2017-09-17T02:53:37.508Z,10.10
2017-09-17T02:56:03.724Z,9.10
2017-09-17T02:58:29.946Z,11.33
2017-09-17T03:00:56.228Z,10.90
2017-09-17T03:03:22.459Z,10.70
2017-09-17T03:05:48.689Z,9.50
2017-09-17T03:08:14.961Z,11.13
2017-09-17T03:10:41.170Z,10.53
2017-09-17T03:13:07.387Z,11.50
2017-09-17T03:15:33.670Z,11.43
2017-09-17T03:17:59.887Z,13.10
2017-09-17T03:20:26.110Z,12.73
2017-09-17T03:22:52.393Z,12.60
2017-09-17T03:25:18.606Z,14.07
2017-09-17T03:27:44.832Z,13.07
2017-09-17T03:30:11.102Z,13.10
2017-09-17T03:32:37.304Z,13.10
2017-09-17T03:35:03.509Z,16.50
2017-09-17T03:37:29.777Z,19.03
2017-09-17T03:39:56.000Z,22.67
2017-09-17T03:42:22.213Z,22.13
2017-09-17T03:44:48.505Z,20.20
2017-09-17T03:47:14.726Z,22.17
2017-09-17T03:49:40.943Z,21.17
2017-09-17T03:52:07.211Z,18.90
2017-09-17T03:54:33.419Z,19.47
2017-09-17T03:56:59.657Z,19.13
2017-09-17T03:59:26.175Z,18.43
2017-09-17T04:01:52.408Z,17.97
2017-09-17T04:04:18.634Z,12.97
2017-09-17T04:06:44.915Z,13.60
2017-09-17T04:09:11.131Z,14.97
2017-09-17T04:11:37.356Z,15.67
2017-09-17T04:14:03.634Z,15.87
2017-09-17T04:16:29.844Z,11.60
2017-09-17T04:18:56.049Z,10.73
2017-09-17T04:21:22.309Z,11.33
2017-09-17T04:23:48.511Z,12.03
2017-09-17T04:26:14.723Z,11.93
2017-09-17T04:28:40.988Z,11.73
2017-09-17T04:31:07.194Z,10.10
2017-09-17T04:33:33.402Z,11.67
2017-09-17T04:35:59.685Z,12.83
2017-09-17T04:38:25.907Z,12.47
2017-09-17T04:40:52.127Z,10.03
2017-09-17T04:43:18.428Z,10.60
2017-09-17T04:45:44.650Z,11.17
2017-09-17T04:48:10.883Z,12.00
2017-09-17T04:50:37.153Z,11.47
2017-09-17T04:53:03.383Z,11.07
2017-09-17T04:55:29.598Z,11.63
2017-09-17T04:57:55.864Z,12.27
2017-09-17T05:00:22.083Z,9.97
2017-09-17T05:02:48.361Z,9.93
2017-09-17T05:05:14.644Z,8.40
2017-09-17T05:07:40.852Z,9.63
2017-09-17T05:10:07.049Z,7.40
2017-09-17T05:12:33.300Z,7.90
2017-09-17T05:14:59.610Z,8.17
2017-09-17T05:17:25.810Z,8.60
2017-09-17T05:19:52.108Z,6.40
2017-09-17T05:22:18.314Z,6.07
2017-09-17T05:24:44.524Z,7.03
2017-09-17T05:27:10.811Z,8.10
2017-09-17T05:29:37.054Z,5.83
2017-09-17T05:32:03.269Z,9.03
2017-09-17T05:34:29.563Z,7.80
2017-09-17T05:36:55.792Z,8.07
2017-09-17T05:39:22.012Z,8.60
2017-09-17T05:41:48.265Z,7.10
2017-09-17T05:44:14.559Z,7.60
2017-09-17T05:46:40.752Z,8.10
2017-09-17T05:49:07.015Z,12.70
2017-09-17T05:51:33.220Z,11.87
2017-09-17T05:53:59.424Z,10.07
2017-09-17T05:56:25.681Z,9.13
2017-09-17T05:58:51.899Z,8.33
2017-09-17T06:01:18.115Z,11.97
2017-09-17T06:03:44.382Z,12.37
2017-09-17T06:06:10.592Z,10.17
2017-09-17T06:08:36.796Z,10.33
2017-09-17T06:11:03.071Z,11.10
2017-09-17T06:13:29.300Z,9.90
2017-09-17T06:15:55.493Z,11.90
2017-09-17T06:18:21.756Z,9.90
2017-09-17T06:20:47.945Z,13.53
2017-09-17T06:23:14.158Z,14.87
2017-09-17T06:25:40.425Z,18.97
2017-09-17T06:28:06.637Z,18.27
2017-09-17T06:30:32.824Z,20.50
2017-09-17T06:32:59.136Z,19.77
2017-09-17T06:35:25.346Z,14.93
2017-09-17T06:37:51.565Z,12.30
2017-09-17T06:40:17.822Z,9.80
2017-09-17T06:42:44.018Z,11.67
2017-09-17T06:45:10.214Z,10.67
2017-09-17T06:47:36.495Z,10.70
2017-09-17T06:50:02.716Z,9.10
2017-09-17T06:52:28.942Z,11.67
2017-09-17T06:54:55.208Z,12.90
2017-09-17T06:57:21.407Z,9.40
2017-09-17T06:59:47.669Z,10.23
2017-09-17T07:02:13.944Z,6.20
2017-09-17T07:04:40.168Z,5.40
2017-09-17T07:07:06.378Z,5.10
2017-09-17T07:09:32.650Z,5.97
2017-09-17T07:11:58.866Z,4.53
2017-09-17T07:14:25.238Z,5.80
2017-09-17T07:16:51.505Z,4.27
2017-09-17T07:19:17.718Z,5.17
2017-09-17T07:21:43.926Z,4.20
2017-09-17T07:24:10.205Z,4.43
2017-09-17T07:26:36.445Z,4.77
2017-09-17T07:29:02.668Z,8.77
2017-09-17T07:31:28.952Z,6.47
2017-09-17T07:33:55.179Z,6.00
2017-09-17T07:36:21.503Z,8.93
2017-09-17T07:38:47.774Z,11.23
2017-09-17T07:41:13.977Z,8.13
2017-09-17T07:43:40.192Z,6.30
2017-09-17T07:46:06.455Z,5.63
2017-09-17T07:48:32.666Z,4.22
2017-09-17T07:50:58.890Z,4.50
2017-09-17T07:53:25.168Z,3.72
2017-09-17T07:55:51.386Z,3.97
2017-09-17T07:58:17.738Z,4.25
2017-09-17T08:00:44.022Z,4.47
2017-09-17T08:03:10.256Z,4.15
2017-09-17T08:05:36.474Z,6.28
2017-09-17T08:08:02.766Z,5.82
2017-09-17T08:10:29.110Z,7.12
2017-09-17T08:12:55.325Z,5.93
2017-09-17T08:15:21.628Z,8.98
2017-09-17T08:17:47.856Z,10.48
2017-09-17T08:20:14.086Z,8.68
2017-09-17T08:22:40.355Z,12.88
2017-09-17T08:25:06.584Z,16.37
2017-09-17T08:27:32.816Z,18.15
2017-09-17T08:29:59.109Z,15.73
2017-09-17T08:32:25.339Z,16.23
2017-09-17T08:34:51.555Z,14.05
2017-09-17T08:37:17.847Z,17.17
2017-09-17T08:39:44.055Z,7.30
2017-09-17T08:42:10.263Z,7.90
2017-09-17T08:44:36.522Z,5.60
2017-09-17T08:47:02.733Z,6.37
2017-09-17T08:49:28.922Z,7.50
2017-09-17T08:51:55.174Z,6.78
2017-09-17T08:54:21.370Z,5.32
2017-09-17T08:56:47.583Z,5.10
2017-09-17T08:59:13.832Z,6.00
2017-09-17T09:01:40.029Z,4.57
2017-09-17T09:04:06.365Z,4.10
2017-09-17T09:06:32.685Z,4.37
2017-09-17T09:08:58.876Z,4.53
2017-09-17T09:11:25.088Z,3.92
2017-09-17T09:13:51.366Z,3.37
2017-09-17T09:16:17.554Z,3.40
2017-09-17T09:18:43.739Z,4.35
2017-09-17T09:21:09.997Z,3.00
2017-09-17T09:23:36.207Z,3.67
2017-09-17T09:26:02.420Z,5.62
2017-09-17T09:28:28.686Z,3.62
2017-09-17T09:30:54.904Z,4.25
2017-09-17T09:33:21.134Z,3.95
2017-09-17T09:35:47.408Z,3.70
2017-09-17T09:38:13.597Z,4.50
2017-09-17T09:40:39.813Z,2.90
2017-09-17T09:43:06.084Z,4.15
2017-09-17T09:45:32.278Z,3.95
2017-09-17T09:47:58.468Z,3.90
2017-09-17T09:50:24.731Z,3.08
2017-09-17T09:52:50.964Z,2.70
2017-09-17T09:55:17.180Z,3.08
2017-09-17T09:57:43.440Z,3.40
2017-09-17T10:00:09.627Z,2.95
2017-09-17T10:02:35.823Z,2.83
2017-09-17T10:05:02.173Z,2.78
2017-09-17T10:07:28.386Z,3.28
2017-09-17T10:09:54.586Z,3.10
2017-09-17T10:12:20.854Z,2.67
2017-09-17T10:14:47.077Z,2.55
2017-09-17T10:17:13.279Z,3.25
2017-09-17T10:19:39.525Z,2.58
2017-09-17T10:22:05.768Z,3.03
2017-09-17T10:24:31.955Z,3.15
2017-09-17T10:26:58.220Z,2.08
2017-09-17T10:29:24.439Z,2.85
2017-09-17T10:31:50.655Z,2.62
2017-09-17T10:34:16.913Z,2.37
2017-09-17T10:36:43.126Z,2.17
2017-09-17T10:39:09.340Z,2.47
2017-09-17T10:41:35.590Z,1.80
2017-09-17T10:44:01.843Z,2.10
2017-09-17T10:46:28.029Z,2.75
2017-09-17T10:48:54.278Z,2.65
2017-09-17T10:51:20.485Z,1.90
2017-09-17T10:53:46.767Z,2.08
2017-09-17T10:56:13.030Z,2.92
2017-09-17T10:58:39.218Z,2.00
2017-09-17T11:01:05.426Z,2.87
2017-09-17T11:03:31.664Z,2.45
2017-09-17T11:05:57.861Z,2.92
2017-09-17T11:08:24.074Z,2.85
2017-09-17T11:10:50.305Z,2.45
2017-09-17T11:13:16.520Z,2.55
2017-09-17T11:15:42.723Z,2.75
2017-09-17T11:18:09.081Z,2.40
2017-09-17T11:20:35.298Z,1.95
2017-09-17T11:23:01.509Z,1.80
2017-09-17T11:25:27.765Z,1.80
2017-09-17T11:27:53.951Z,2.83
2017-09-17T11:30:20.160Z,1.85
2017-09-17T11:32:46.424Z,2.20
2017-09-17T11:35:12.620Z,2.15
2017-09-17T11:37:38.804Z,1.62
2017-09-17T11:40:05.072Z,2.37
2017-09-17T11:42:31.269Z,2.20
2017-09-17T11:44:57.492Z,2.25
2017-09-17T11:47:23.745Z,2.35
2017-09-17T11:49:49.960Z,2.35
2017-09-17T11:52:16.192Z,2.40
2017-09-17T11:54:42.425Z,2.25
2017-09-17T11:57:08.628Z,2.42
2017-09-17T11:59:34.821Z,1.90
2017-09-17T12:02:01.081Z,2.72
2017-09-17T12:04:27.277Z,1.92
2017-09-17T12:06:53.483Z,2.30
2017-09-17T12:09:19.763Z,2.75
2017-09-17T12:11:45.977Z,2.17
2017-09-17T12:14:12.174Z,2.85
2017-09-17T12:16:38.463Z,1.87
2017-09-17T12:19:04.657Z,1.90
2017-09-17T12:21:30.882Z,2.60
2017-09-17T12:23:57.162Z,2.25
2017-09-17T12:26:23.367Z,3.05
2017-09-17T12:28:49.568Z,1.87
2017-09-17T12:31:15.853Z,39.97
2017-09-17T12:33:42.065Z,2.67
2017-09-17T12:36:08.276Z,2.30
2017-09-17T12:38:34.537Z,3.33
2017-09-17T12:41:00.745Z,10.82
2017-09-17T12:43:26.945Z,2.67
2017-09-17T12:45:53.197Z,2.35
2017-09-17T12:48:19.396Z,1.98
2017-09-17T12:50:45.599Z,1.83
2017-09-17T12:53:11.871Z,2.15
2017-09-17T12:55:38.082Z,2.10
2017-09-17T12:58:05.190Z,2.50
2017-09-17T13:00:32.896Z,2.55
2017-09-17T13:02:59.250Z,2.25
2017-09-17T13:05:25.476Z,2.42
2017-09-17T13:07:51.760Z,2.17
2017-09-17T13:10:18.255Z,3.00
2017-09-17T13:12:44.469Z,2.75
2017-09-17T13:15:10.742Z,1.92
2017-09-17T13:17:37.071Z,2.70
2017-09-17T13:20:03.257Z,2.12
2017-09-17T13:22:29.564Z,2.80
2017-09-17T13:24:55.780Z,2.30
2017-09-17T13:27:21.995Z,3.00
2017-09-17T13:29:48.267Z,2.75
2017-09-17T13:32:14.456Z,2.20
2017-09-17T13:34:40.681Z,2.60
2017-09-17T13:37:06.942Z,2.50
2017-09-17T13:39:33.154Z,3.12
2017-09-17T13:41:59.362Z,3.12
2017-09-17T13:44:25.617Z,2.92
2017-09-17T13:46:51.820Z,2.97
2017-09-17T13:49:18.000Z,2.60
2017-09-17T13:51:44.273Z,2.80
2017-09-17T13:54:10.456Z,15.63
2017-09-17T13:56:36.657Z,2.80
2017-09-17T13:59:02.924Z,3.00
2017-09-17T14:01:29.125Z,3.43
2017-09-17T14:03:55.405Z,3.22
2017-09-17T14:06:21.655Z,3.50
2017-09-17T14:08:47.858Z,3.37
2017-09-17T14:11:14.066Z,3.05
2017-09-17T14:13:40.380Z,4.37
2017-09-17T14:16:06.582Z,4.27
2017-09-17T14:18:32.819Z,4.13
2017-09-17T14:20:59.101Z,2.93
2017-09-17T14:23:25.423Z,3.92
2017-09-17T14:25:51.639Z,3.53
2017-09-17T14:28:17.901Z,2.97
2017-09-17T14:30:44.327Z,3.60
2017-09-17T14:33:10.509Z,2.77
2017-09-17T14:35:36.759Z,3.80
2017-09-17T14:38:02.979Z,2.60
2017-09-17T14:40:29.189Z,2.70
2017-09-17T14:42:55.482Z,3.10
2017-09-17T14:45:21.697Z,4.17
2017-09-17T14:47:47.897Z,3.43
2017-09-17T14:50:14.153Z,3.67
2017-09-17T14:52:40.342Z,2.87
2017-09-17T14:55:06.524Z,3.17
2017-09-17T14:57:32.722Z,3.70
2017-09-17T14:59:58.918Z,2.90
2017-09-17T15:02:25.170Z,3.23
2017-09-17T15:04:51.391Z,2.73
2017-09-17T15:07:17.601Z,3.00
2017-09-17T15:09:43.869Z,3.00
2017-09-17T15:12:10.197Z,3.13
2017-09-17T15:14:36.404Z,3.60
2017-09-17T15:17:02.660Z,3.73
2017-09-17T15:19:28.867Z,4.20
2017-09-17T15:21:55.094Z,3.30
2017-09-17T15:24:21.387Z,3.20
2017-09-17T15:26:47.600Z,4.73
2017-09-17T15:29:13.818Z,3.90
2017-09-17T15:31:40.076Z,4.60
2017-09-17T15:34:06.291Z,4.83
2017-09-17T15:36:32.494Z,4.10
2017-09-17T15:38:58.744Z,7.17
2017-09-17T15:41:24.947Z,8.63
2017-09-17T15:43:51.145Z,5.17
2017-09-17T15:46:17.378Z,7.13
2017-09-17T15:48:43.569Z,7.00
2017-09-17T15:51:09.776Z,12.60
2017-09-17T15:53:36.039Z,9.90
2017-09-17T15:56:02.235Z,11.43
2017-09-17T15:58:28.428Z,10.70
2017-09-17T16:00:54.690Z,10.50
2017-09-17T16:03:20.911Z,9.67
2017-09-17T16:05:47.121Z,18.57
2017-09-17T16:08:13.401Z,18.77
2017-09-17T16:10:39.639Z,13.60
2017-09-17T16:13:05.852Z,9.83
2017-09-17T16:15:32.116Z,19.00
2017-09-17T16:17:58.322Z,17.57
2017-09-17T16:20:24.536Z,20.40
2017-09-17T16:22:50.798Z,18.97
2017-09-17T16:25:17.001Z,16.10
2017-09-17T16:27:43.206Z,12.30
2017-09-17T16:30:09.466Z,15.10
2017-09-17T16:32:35.672Z,11.83
2017-09-17T16:35:01.872Z,11.90
2017-09-17T16:37:28.118Z,8.93
2017-09-17T16:39:54.331Z,8.20
2017-09-17T16:42:20.534Z,8.13
2017-09-17T16:44:46.794Z,8.80
2017-09-17T16:47:13.000Z,10.17
2017-09-17T16:49:39.205Z,6.90
2017-09-17T16:52:05.477Z,10.50
2017-09-17T16:54:31.680Z,10.00
2017-09-17T16:56:57.888Z,14.30
2017-09-17T16:59:24.131Z,7.83
2017-09-17T17:01:50.329Z,8.30
2017-09-17T17:04:16.530Z,8.50
2017-09-17T17:06:42.784Z,7.93
2017-09-17T17:09:08.987Z,6.40
2017-09-17T17:11:35.178Z,7.97
2017-09-17T17:14:01.412Z,10.07
2017-09-17T17:16:27.753Z,8.00
2017-09-17T17:18:53.969Z,8.00
2017-09-17T17:21:20.229Z,6.00
2017-09-17T17:23:46.440Z,9.73
2017-09-17T17:26:12.645Z,10.10
2017-09-17T17:28:38.900Z,8.27
2017-09-17T17:31:05.113Z,10.03
2017-09-17T17:33:31.308Z,9.87
2017-09-17T17:35:57.563Z,11.90
2017-09-17T17:38:23.779Z,10.80
2017-09-17T17:40:49.984Z,12.17
2017-09-17T17:43:16.230Z,13.00
2017-09-17T17:45:42.443Z,13.97
2017-09-17T17:48:08.649Z,9.20
2017-09-17T17:50:34.911Z,10.40
2017-09-17T17:53:01.119Z,7.83
2017-09-17T17:55:27.307Z,8.13
2017-09-17T17:57:53.555Z,9.57
2017-09-17T18:00:19.747Z,6.60
2017-09-17T18:02:45.945Z,9.60
2017-09-17T18:05:12.196Z,10.47
2017-09-17T18:07:38.407Z,9.87
2017-09-17T18:10:04.627Z,7.00
2017-09-17T18:12:30.988Z,9.60
2017-09-17T18:14:57.234Z,10.07
2017-09-17T18:17:23.443Z,10.60
2017-09-17T18:19:49.751Z,8.83
2017-09-17T18:22:16.093Z,11.37
2017-09-17T18:24:42.304Z,8.30
2017-09-17T18:27:08.574Z,10.53
2017-09-17T18:29:34.783Z,13.00
2017-09-17T18:32:00.985Z,14.03
2017-09-17T18:34:27.245Z,17.80
2017-09-17T18:36:53.453Z,11.07
2017-09-17T18:39:19.668Z,13.43
2017-09-17T18:41:45.978Z,15.37
2017-09-17T18:44:12.194Z,14.17
2017-09-17T18:46:38.407Z,12.50
2017-09-17T18:49:04.684Z,15.23
2017-09-17T18:51:30.910Z,11.93
2017-09-17T18:53:57.125Z,10.17
2017-09-17T18:56:23.392Z,12.60
2017-09-17T18:58:49.613Z,12.57
2017-09-17T19:01:15.834Z,7.03
2017-09-17T19:03:42.128Z,14.53
2017-09-17T19:06:08.350Z,11.47
2017-09-17T19:08:34.574Z,13.10
2017-09-17T19:11:00.870Z,12.80
2017-09-17T19:13:27.078Z,13.60
2017-09-17T19:15:53.307Z,11.57
2017-09-17T19:18:19.600Z,16.10
2017-09-17T19:20:45.837Z,11.37
2017-09-17T19:23:12.265Z,11.60
2017-09-17T19:25:38.523Z,9.80
2017-09-17T19:28:04.745Z,9.07
2017-09-17T19:30:31.007Z,9.40
2017-09-17T19:32:57.266Z,10.63
2017-09-17T19:35:23.494Z,10.80
2017-09-17T19:37:49.715Z,12.13
2017-09-17T19:40:15.986Z,8.43
2017-09-17T19:42:42.187Z,9.97
2017-09-17T19:45:08.391Z,11.23
2017-09-17T19:47:34.693Z,10.77
2017-09-17T19:50:00.881Z,13.00
2017-09-17T19:52:27.223Z,8.60
2017-09-17T19:54:53.495Z,9.90
2017-09-17T19:57:19.877Z,9.17
2017-09-17T19:59:46.100Z,9.13
2017-09-17T20:02:12.529Z,9.27
2017-09-17T20:04:38.825Z,7.70
2017-09-17T20:07:05.051Z,7.83
2017-09-17T20:09:31.358Z,9.83
2017-09-17T20:11:57.584Z,8.23
2017-09-17T20:14:23.849Z,9.33
2017-09-17T20:16:50.139Z,9.87
2017-09-17T20:19:16.473Z,8.93
2017-09-17T20:21:42.789Z,9.20
2017-09-17T20:24:09.047Z,7.97
2017-09-17T20:26:35.245Z,7.63
2017-09-17T20:29:01.460Z,9.40
2017-09-17T20:31:27.716Z,8.43
2017-09-17T20:33:53.939Z,9.40
2017-09-17T20:36:20.165Z,7.33
2017-09-17T20:38:46.449Z,8.60
2017-09-17T20:41:12.643Z,11.30
2017-09-17T20:43:38.870Z,10.83
2017-09-17T20:46:05.130Z,15.97
2017-09-17T20:48:31.477Z,14.43
2017-09-17T20:50:57.700Z,13.73
2017-09-17T20:53:23.955Z,10.57
2017-09-17T20:55:50.166Z,14.03
2017-09-17T20:58:16.404Z,12.23
2017-09-17T21:00:42.609Z,11.63
2017-09-17T21:03:08.814Z,11.57
2017-09-17T21:05:35.060Z,15.70
2017-09-17T21:08:01.272Z,14.57
2017-09-17T21:10:27.493Z,15.33
2017-09-17T21:12:53.766Z,12.40
2017-09-17T21:15:20.001Z,12.70
2017-09-17T21:17:46.227Z,30.10
2017-09-17T21:20:12.481Z,14.93
2017-09-17T21:22:38.712Z,22.20
2017-09-17T21:25:04.999Z,14.50
2017-09-17T21:27:31.269Z,14.47
2017-09-17T21:29:57.482Z,15.03
2017-09-17T21:32:23.685Z,18.07
2017-09-17T21:34:49.940Z,14.27
2017-09-17T21:37:16.163Z,14.10
2017-09-17T21:39:42.380Z,14.20
2017-09-17T21:42:08.643Z,14.50
2017-09-17T21:44:34.826Z,14.50
2017-09-17T21:47:01.034Z,12.67
2017-09-17T21:49:27.322Z,12.97
2017-09-17T21:51:53.520Z,12.43
2017-09-17T21:54:19.715Z,11.70
2017-09-17T21:56:45.968Z,11.90
2017-09-17T21:59:12.183Z,12.97
2017-09-17T22:01:38.387Z,11.70
2017-09-17T22:04:04.652Z,11.97
2017-09-17T22:06:30.880Z,13.50
2017-09-17T22:08:57.106Z,12.30
2017-09-17T22:11:23.383Z,10.27
2017-09-17T22:13:49.612Z,11.30
2017-09-17T22:16:15.838Z,10.83
2017-09-17T22:18:42.106Z,13.23
2017-09-17T22:21:08.314Z,10.50
2017-09-17T22:23:34.526Z,13.60
2017-09-17T22:26:00.782Z,13.20
2017-09-17T22:28:26.992Z,15.20
2017-09-17T22:30:53.198Z,16.53
2017-09-17T22:33:19.472Z,20.80
2017-09-17T22:35:45.689Z,22.90
2017-09-17T22:38:11.908Z,23.00
2017-09-17T22:40:38.183Z,20.27
2017-09-17T22:43:04.391Z,23.10
2017-09-17T22:45:30.619Z,21.73
2017-09-17T22:47:56.901Z,21.00
2017-09-17T22:50:23.115Z,20.23
2017-09-17T22:52:49.324Z,19.30
2017-09-17T22:55:15.583Z,18.83
2017-09-17T22:57:41.831Z,18.63
2017-09-17T23:00:08.112Z,17.97
2017-09-17T23:02:34.393Z,18.77
2017-09-17T23:05:00.782Z,19.40
2017-09-17T23:07:26.990Z,16.10
2017-09-17T23:09:53.272Z,16.00
2017-09-17T23:12:19.497Z,16.50
2017-09-17T23:14:45.728Z,17.60
2017-09-17T23:17:12.005Z,17.27
2017-09-17T23:19:38.216Z,15.47
2017-09-17T23:22:04.447Z,14.40
2017-09-17T23:24:30.733Z,14.07
2017-09-17T23:26:56.954Z,14.97
2017-09-17T23:29:23.164Z,14.10
2017-09-17T23:31:49.441Z,13.40
2017-09-17T23:34:15.655Z,16.07
2017-09-17T23:36:41.979Z,14.50
2017-09-17T23:39:08.256Z,12.80
2017-09-17T23:41:34.480Z,15.57
2017-09-17T23:44:00.713Z,13.67
2017-09-17T23:46:26.985Z,13.93
2017-09-17T23:48:53.201Z,12.67
2017-09-17T23:51:19.554Z,12.30
2017-09-17T23:53:45.838Z,13.07
2017-09-17T23:56:12.052Z,13.23
2017-09-17T23:58:38.275Z,18.07
